SBOSBO DLM / LTBS
Speedbird OnlineSpeedbird Online DLM / LTBS

Dalaman International Airport
15:45 14°C

Location Dalaman, Turkey
Latitude: 36.7131004333
Longitude: 28.7924995422
Web Wikipedia
Altitude 6 Meter / 20 Feet
Distance 2,789 KM / 1,733 Miles
from London.
Time Zone UTC +3 hours (Europe/Istanbul)
Codes IATA: DLM
ICAO: LTBS
Currency £1 equals TRY 23.20
Runways
RunwayLength (m)Surface
013000Concrete
193000Concrete
Radio
TypeDescriptionFrequency
APPAPP119.225
ATISATIS127.35
GNDGND121.9
TWRTWR118.5
Live ATC
METAR LTBS 311220Z 30008KT 260V340 9999 FEW030 SCT180 14/M01 Q1007 NOSIG RMK RWY19 33010KT 1CU030 4CI180
TAF TAF LTBS 311040Z 3112/0112 34009KT 9999 FEW030 BKN180 BECMG 3122/3124 35015G25KT
Weather As Of 31 Jan 2023 15:45
Description Scattered clouds
Wind 15 km/h from North-West (300°)
Cloud Cover 40%
Precipitation Rain: none, Snow: none
Sunrise 08:08
Sunset 18:28
Lounges CIP Lounge, Main Terminal



Support Speedbird Online

© 2017-2023 Speedbird Online